VVDN/DAD METAR and TAF weather

Enter ICAO airport designator
Station Type Date Time Source
VVDN METAR 2018/12/11 20:00 UTC NOAA

VVDN 112000Z 04008KT 6000 SCT012 BKN050 25/22 Q1016 NOSIG


Station Type Date Time Source
VVDN Decoded METAR 2018/12/11 20:00 UTC NOAA

Da Nang, Vietnam (VVDN) 16-02N 108-11E 7M
Dec 11, 2018 - 03:00 PM EST / 2018.12.11 2000 UTC
Wind: from the NE (040 degrees) at 9 MPH (8 KT):0
Visibility: 3 mile(s):0
Sky conditions: mostly cloudy
Temperature: 77 F (25 C)
Dew Point: 71 F (22 C)
Relative Humidity: 83%
Pressure (altimeter): 30.00 in. Hg (1016 hPa)
ob: VVDN 112000Z 04008KT 6000 SCT012 BKN050 25/22 Q1016 NOSIG
cycle: 20

Station Type Date Time Source
VVDN TAF 2018/12/11 18:39 UTC NOAA

TAF VVDN 111700Z 1118/1218 05010KT 5000 BR SCT012 BKN050
TEMPO 1118/1124 2000 RA BR
TEMPO 1200/1205 1400 +RA BR
TEMPO 1205/1209 2500 RA BR
TEMPO 1209/1218 1400 +RA BR


Example: see airport list